Terminal Aerodrome Forecast
Issued by NWS Quad Cities IA IL

Home | Current Version | Previous Version | Graphics & Text | Print | Product List | Glossary On
Versions: 1 2 3 4 5 6 7 8 9 10 11 12 13 14 15 16 17
000
FTUS43 KDVN 291751
TAFMLI
TAF
KMLI 291751Z 2918/3018 00000KT 4SM BR OVC015
     FM292000 VRB03KT P6SM VCSH BKN018
     FM300400 00000KT 4SM BR OVC008
     FM300800 00000KT 1SM BR OVC005
      TEMPO 3009/3013 1/2SM FG VV002
     FM301500 VRB03KT 3SM BR BKN008
     FM301700 VRB04KT P6SM SCT008 BKN020=

USA.gov is the U.S. government's official web portal to all federal, state and local government web resources and services.